createdAt,value
2018-07-28T00:01:44.370Z,99.90
2018-07-28T00:04:11.611Z,99.90
2018-07-28T00:06:38.804Z,99.90
2018-07-28T00:11:34.227Z,99.90
2018-07-28T00:14:01.503Z,99.90
2018-07-28T00:16:28.787Z,99.90
2018-07-28T00:18:55.999Z,99.90
2018-07-28T00:21:23.203Z,99.90
2018-07-28T00:23:50.428Z,99.90
2018-07-28T00:26:18.131Z,99.90
2018-07-28T00:28:46.509Z,99.90
2018-07-28T00:31:13.771Z,99.90
2018-07-28T00:33:40.986Z,99.90
2018-07-28T00:36:08.173Z,99.90
2018-07-28T00:38:35.408Z,99.90
2018-07-28T00:41:02.583Z,99.90
2018-07-28T00:43:29.755Z,99.90
2018-07-28T00:50:58.146Z,99.90
2018-07-28T00:53:25.336Z,99.90
2018-07-28T00:55:52.501Z,99.90
2018-07-28T00:58:19.711Z,99.90
2018-07-28T01:00:46.999Z,99.90
2018-07-28T01:03:14.219Z,99.90
2018-07-28T01:05:41.500Z,99.90
2018-07-28T01:08:08.657Z,99.90
2018-07-28T01:13:03.427Z,99.90
2018-07-28T01:15:30.650Z,99.90
2018-07-28T01:20:25.307Z,99.90
2018-07-28T01:22:52.496Z,99.90
2018-07-28T01:25:19.719Z,99.90
2018-07-28T01:27:47.114Z,99.90
2018-07-28T01:30:18.875Z,99.90
2018-07-28T01:32:46.618Z,99.90
2018-07-28T01:35:13.823Z,99.90
2018-07-28T01:37:41.027Z,99.90
2018-07-28T01:40:08.247Z,99.90
2018-07-28T01:42:35.482Z,99.90
2018-07-28T01:47:33.739Z,99.90
2018-07-28T01:50:00.918Z,99.90
2018-07-28T01:52:28.079Z,99.90
2018-07-28T01:54:55.384Z,99.90
2018-07-28T01:57:22.547Z,99.90
2018-07-28T01:59:49.765Z,99.90
2018-07-28T02:02:16.951Z,99.90
2018-07-28T02:04:44.135Z,99.90
2018-07-28T02:07:11.344Z,99.90
2018-07-28T02:09:38.538Z,99.90
2018-07-28T02:12:06.087Z,99.90
2018-07-28T02:14:33.376Z,99.90
2018-07-28T02:17:00.696Z,99.90
2018-07-28T02:19:27.939Z,99.90
2018-07-28T02:21:55.167Z,99.90
2018-07-28T02:24:22.384Z,99.90
2018-07-28T02:29:16.838Z,99.90
2018-07-28T02:31:44.024Z,99.90
2018-07-28T02:34:11.238Z,99.90
2018-07-28T02:36:38.452Z,99.90
2018-07-28T02:39:07.370Z,99.90
2018-07-28T02:41:34.596Z,99.90
2018-07-28T02:44:01.946Z,99.90
2018-07-28T02:46:29.155Z,99.90
2018-07-28T02:48:56.388Z,99.90
2018-07-28T02:51:23.596Z,99.90
2018-07-28T02:53:50.791Z,99.90
2018-07-28T02:56:18.056Z,99.90
2018-07-28T02:58:45.398Z,99.90
2018-07-28T03:03:40.267Z,99.90
2018-07-28T03:06:07.535Z,99.90
2018-07-28T03:08:34.731Z,99.90
2018-07-28T03:11:02.175Z,99.90
2018-07-28T03:15:56.557Z,99.90
2018-07-28T03:18:23.710Z,99.90
2018-07-28T03:20:50.879Z,99.90
2018-07-28T03:23:18.135Z,99.90
2018-07-28T03:25:45.326Z,99.90
2018-07-28T03:28:12.548Z,99.90
2018-07-28T03:30:39.980Z,99.90
2018-07-28T03:33:07.180Z,99.90
2018-07-28T03:35:34.432Z,99.90
2018-07-28T03:38:01.676Z,99.90
2018-07-28T03:40:28.856Z,99.90
2018-07-28T03:42:56.052Z,99.90
2018-07-28T03:45:23.275Z,99.90
2018-07-28T03:47:50.459Z,99.90
2018-07-28T03:50:17.726Z,99.90
2018-07-28T03:52:44.922Z,99.90
2018-07-28T03:55:12.151Z,99.90
2018-07-28T03:57:39.440Z,99.90
2018-07-28T04:00:08.163Z,99.90
2018-07-28T04:02:35.360Z,99.90
2018-07-28T04:05:02.686Z,99.90
2018-07-28T04:07:29.867Z,99.90
2018-07-28T04:09:57.031Z,99.90
2018-07-28T04:12:24.287Z,99.90
2018-07-28T04:14:51.516Z,99.90
2018-07-28T04:17:18.722Z,99.90
2018-07-28T04:19:45.995Z,99.90
2018-07-28T04:22:13.279Z,99.90
2018-07-28T04:24:40.473Z,99.90
2018-07-28T04:27:07.665Z,99.90
2018-07-28T04:29:34.889Z,99.90
2018-07-28T04:32:02.036Z,99.90
2018-07-28T04:34:29.204Z,99.90
2018-07-28T04:39:24.039Z,99.90
2018-07-28T04:41:51.233Z,99.90
2018-07-28T04:44:18.451Z,99.90
2018-07-28T04:46:45.747Z,99.90
2018-07-28T04:49:13.046Z,99.90
2018-07-28T04:54:07.813Z,99.90
2018-07-28T04:56:35.004Z,99.90
2018-07-28T04:59:02.251Z,99.90
2018-07-28T05:01:29.520Z,99.90
2018-07-28T05:03:56.734Z,99.90
2018-07-28T05:06:24.136Z,99.90
2018-07-28T05:08:51.387Z,99.90
2018-07-28T05:11:18.628Z,99.90
2018-07-28T05:13:46.046Z,99.90
2018-07-28T05:16:13.395Z,99.90
2018-07-28T05:18:41.002Z,99.90
2018-07-28T05:21:08.198Z,99.90
2018-07-28T05:23:35.399Z,99.90
2018-07-28T05:26:02.643Z,99.90
2018-07-28T05:28:29.795Z,99.90
2018-07-28T05:30:57.108Z,99.90
2018-07-28T05:33:24.280Z,99.90
2018-07-28T05:35:51.486Z,99.90
2018-07-28T05:38:18.778Z,99.90
2018-07-28T05:40:46.147Z,99.90
2018-07-28T05:43:13.387Z,99.90
2018-07-28T05:45:40.547Z,99.90
2018-07-28T05:48:07.711Z,99.90
2018-07-28T05:50:34.907Z,99.90
2018-07-28T05:53:02.360Z,99.90
2018-07-28T05:55:29.599Z,99.90
2018-07-28T05:57:56.793Z,99.90
2018-07-28T06:00:24.005Z,99.90
2018-07-28T06:02:51.302Z,99.90
2018-07-28T06:05:18.482Z,99.90
2018-07-28T06:07:45.805Z,99.90
2018-07-28T06:10:13.008Z,99.90
2018-07-28T06:12:40.255Z,99.90
2018-07-28T06:15:08.130Z,99.90
2018-07-28T06:17:35.370Z,99.90
2018-07-28T06:20:02.587Z,99.90
2018-07-28T06:22:29.803Z,99.90
2018-07-28T06:24:57.031Z,99.90
2018-07-28T06:27:24.227Z,99.90
2018-07-28T06:29:52.216Z,99.90
2018-07-28T06:32:19.505Z,99.90
2018-07-28T06:37:13.940Z,99.90
2018-07-28T06:39:41.192Z,99.90
2018-07-28T06:42:08.340Z,99.90
2018-07-28T06:44:35.518Z,99.90
2018-07-28T06:47:02.723Z,99.90
2018-07-28T06:49:30.247Z,99.90
2018-07-28T06:51:57.471Z,99.90
2018-07-28T06:54:24.663Z,99.90
2018-07-28T06:56:51.930Z,99.90
2018-07-28T06:59:19.203Z,99.90
2018-07-28T07:01:46.450Z,99.90
2018-07-28T07:04:13.643Z,99.90
2018-07-28T07:09:09.456Z,99.90
2018-07-28T07:11:36.704Z,99.90
2018-07-28T07:14:03.907Z,99.90
2018-07-28T07:16:31.120Z,99.90
2018-07-28T07:18:58.367Z,99.90
2018-07-28T07:23:52.966Z,99.90
2018-07-28T07:26:20.336Z,99.90
2018-07-28T07:28:47.517Z,99.90
2018-07-28T07:31:14.959Z,99.90
2018-07-28T07:33:42.187Z,99.90
2018-07-28T07:36:09.459Z,99.90
2018-07-28T07:38:36.743Z,99.90
2018-07-28T07:41:03.951Z,99.90
2018-07-28T07:43:31.222Z,99.90
2018-07-28T07:45:58.455Z,99.90
2018-07-28T07:48:25.635Z,99.90
2018-07-28T07:50:52.815Z,99.90
2018-07-28T07:53:20.041Z,99.90
2018-07-28T07:55:47.255Z,99.90
2018-07-28T07:58:14.475Z,99.90
2018-07-28T08:00:41.699Z,99.90
2018-07-28T08:03:08.879Z,99.90
2018-07-28T08:05:36.037Z,99.90
2018-07-28T08:08:03.213Z,99.90
2018-07-28T08:10:30.592Z,99.90
2018-07-28T08:12:57.833Z,99.90
2018-07-28T08:15:25.029Z,99.90
2018-07-28T08:17:52.274Z,99.90
2018-07-28T08:20:19.525Z,99.90
2018-07-28T08:22:46.795Z,99.90
2018-07-28T08:25:13.985Z,99.90
2018-07-28T08:27:41.199Z,99.90
2018-07-28T08:30:08.485Z,99.90
2018-07-28T08:32:35.716Z,99.90
2018-07-28T08:35:03.509Z,99.90
2018-07-28T08:37:30.780Z,99.90
2018-07-28T08:39:57.951Z,99.90
2018-07-28T08:42:25.183Z,99.90
2018-07-28T08:44:52.375Z,99.90
2018-07-28T08:47:19.560Z,99.90
2018-07-28T08:49:46.831Z,99.90
2018-07-28T08:52:14.052Z,99.90
2018-07-28T08:54:41.359Z,99.90
2018-07-28T08:57:08.527Z,99.90
2018-07-28T08:59:35.725Z,99.90
2018-07-28T09:02:02.986Z,99.90
2018-07-28T09:04:30.132Z,99.90
2018-07-28T09:06:57.336Z,99.90
2018-07-28T09:09:24.610Z,99.90
2018-07-28T09:11:52.679Z,99.90
2018-07-28T09:14:19.876Z,99.90
2018-07-28T09:16:47.100Z,99.90
2018-07-28T09:19:14.273Z,99.90
2018-07-28T09:21:41.480Z,99.90
2018-07-28T09:24:08.652Z,99.90
2018-07-28T09:26:35.836Z,99.90
2018-07-28T09:29:03.036Z,99.90
2018-07-28T09:31:30.406Z,99.90
2018-07-28T09:33:57.551Z,99.90
2018-07-28T09:36:24.784Z,99.90
2018-07-28T09:38:52.135Z,99.90
2018-07-28T09:41:19.348Z,99.90
2018-07-28T09:43:46.583Z,99.90
2018-07-28T09:46:13.868Z,99.90
2018-07-28T09:48:41.167Z,99.90
2018-07-28T09:51:08.543Z,99.90
2018-07-28T09:53:36.923Z,99.90
2018-07-28T09:56:04.378Z,99.90
2018-07-28T09:58:31.539Z,99.90
2018-07-28T10:00:59.455Z,99.90
2018-07-28T10:03:27.536Z,99.90
2018-07-28T10:05:55.087Z,99.90
2018-07-28T10:08:22.573Z,99.90
2018-07-28T10:10:49.791Z,99.90
2018-07-28T10:13:16.991Z,99.90
2018-07-28T10:15:44.195Z,99.90
2018-07-28T10:18:11.369Z,99.90
2018-07-28T10:20:38.547Z,99.90
2018-07-28T10:23:05.987Z,99.90
2018-07-28T10:25:33.088Z,99.90
2018-07-28T10:28:00.566Z,99.90
2018-07-28T10:30:28.104Z,99.90
2018-07-28T10:32:55.299Z,99.90
2018-07-28T10:35:22.520Z,99.90
2018-07-28T10:37:49.723Z,99.50
2018-07-28T10:40:16.944Z,99.00
2018-07-28T10:42:44.119Z,97.60
2018-07-28T10:45:11.325Z,97.10
2018-07-28T10:47:38.567Z,97.00
2018-07-28T10:50:06.110Z,97.50
2018-07-28T10:52:33.313Z,96.40
2018-07-28T10:55:00.545Z,96.40
2018-07-28T10:57:27.731Z,95.50
2018-07-28T10:59:55.005Z,94.80
2018-07-28T11:02:22.485Z,93.50
2018-07-28T11:04:49.676Z,93.90
2018-07-28T11:09:44.580Z,91.80
2018-07-28T11:12:11.851Z,91.50
2018-07-28T11:14:39.102Z,91.50
2018-07-28T11:17:06.591Z,90.60
2018-07-28T11:19:33.892Z,90.60
2018-07-28T11:22:01.110Z,90.20
2018-07-28T11:24:28.359Z,90.10
2018-07-28T11:26:55.547Z,89.80
2018-07-28T11:29:22.735Z,87.60
2018-07-28T11:32:01.510Z,85.40
2018-07-28T11:34:40.264Z,84.00
2018-07-28T11:37:24.847Z,83.40
2018-07-28T11:40:03.858Z,83.40
2018-07-28T11:42:43.134Z,83.10
2018-07-28T11:45:11.072Z,80.80
2018-07-28T11:47:37.875Z,81.90
2018-07-28T11:50:04.743Z,77.90
2018-07-28T11:52:31.499Z,75.10
2018-07-28T11:54:58.184Z,74.10
2018-07-28T11:57:24.895Z,71.90
2018-07-28T11:59:51.562Z,70.10
2018-07-28T12:02:18.248Z,68.50
2018-07-28T12:04:44.989Z,66.60
2018-07-28T12:07:11.682Z,66.20
2018-07-28T12:09:38.392Z,65.40
2018-07-28T12:12:05.149Z,64.70
2018-07-28T12:14:31.851Z,61.60
2018-07-28T12:16:58.570Z,61.00
2018-07-28T12:19:25.328Z,59.50
2018-07-28T12:21:52.027Z,59.90
2018-07-28T12:24:18.819Z,58.00
2018-07-28T12:26:46.048Z,56.90
2018-07-28T12:29:13.251Z,57.80
2018-07-28T12:31:40.424Z,57.50
2018-07-28T12:34:07.665Z,56.60
2018-07-28T12:36:34.892Z,57.80
2018-07-28T12:39:02.276Z,59.00
2018-07-28T12:41:29.502Z,60.00
2018-07-28T12:43:56.731Z,59.30
2018-07-28T12:46:23.916Z,58.50
2018-07-28T12:48:51.122Z,56.30
2018-07-28T12:51:18.355Z,54.30
2018-07-28T12:53:45.607Z,52.30
2018-07-28T12:56:12.931Z,51.50
2018-07-28T12:58:40.167Z,52.70
2018-07-28T13:01:07.423Z,51.60
2018-07-28T13:03:34.635Z,51.20
2018-07-28T13:06:01.856Z,52.10
2018-07-28T13:08:29.094Z,53.00
2018-07-28T13:10:56.529Z,55.00
2018-07-28T13:13:23.274Z,54.80
2018-07-28T13:15:50.029Z,56.20
2018-07-28T13:18:16.781Z,56.10
2018-07-28T13:20:43.514Z,56.70
2018-07-28T13:23:10.390Z,57.30
2018-07-28T13:25:37.189Z,58.80
2018-07-28T13:30:30.691Z,60.50
2018-07-28T13:32:57.363Z,61.20
2018-07-28T13:35:24.089Z,62.10
2018-07-28T13:37:50.884Z,64.70
2018-07-28T13:40:17.659Z,74.80
2018-07-28T13:42:44.393Z,79.70
2018-07-28T13:45:11.101Z,99.70
2018-07-28T13:50:06.573Z,99.90
2018-07-28T13:52:33.819Z,99.90
2018-07-28T13:55:01.114Z,99.90
2018-07-28T13:57:28.430Z,99.90
2018-07-28T13:59:55.654Z,99.90
2018-07-28T14:02:22.905Z,99.90
2018-07-28T14:04:50.114Z,99.90
2018-07-28T14:07:17.636Z,99.90
2018-07-28T14:09:44.993Z,99.90
2018-07-28T14:14:39.579Z,99.90
2018-07-28T14:17:06.779Z,99.90
2018-07-28T14:19:33.979Z,99.90
2018-07-28T14:22:01.210Z,99.90
2018-07-28T14:24:28.468Z,99.90
2018-07-28T14:26:55.738Z,99.90
2018-07-28T14:29:22.971Z,99.90
2018-07-28T14:31:50.684Z,99.90
2018-07-28T14:34:17.932Z,99.90
2018-07-28T14:36:45.201Z,99.90
2018-07-28T14:39:12.453Z,99.90
2018-07-28T14:41:39.950Z,99.90
2018-07-28T14:44:07.107Z,99.90
2018-07-28T14:46:34.325Z,99.90
2018-07-28T14:49:01.565Z,99.90
2018-07-28T14:51:28.808Z,99.90
2018-07-28T14:53:56.033Z,99.90
2018-07-28T14:56:23.276Z,99.90
2018-07-28T14:58:50.952Z,99.90
2018-07-28T15:01:18.228Z,99.90
2018-07-28T15:03:45.432Z,99.90
2018-07-28T15:06:12.630Z,99.90
2018-07-28T15:08:39.857Z,99.90
2018-07-28T15:11:07.171Z,99.90
2018-07-28T15:13:34.408Z,99.90
2018-07-28T15:16:01.712Z,99.90
2018-07-28T15:18:28.916Z,99.90
2018-07-28T15:20:56.147Z,99.90
2018-07-28T15:23:23.423Z,99.90
2018-07-28T15:25:50.782Z,99.90
2018-07-28T15:28:18.004Z,99.90
2018-07-28T15:30:46.488Z,99.90
2018-07-28T15:34:43.307Z,99.90
2018-07-28T15:37:10.660Z,99.90
2018-07-28T15:39:37.815Z,99.90
2018-07-28T15:42:05.115Z,99.90
2018-07-28T15:44:32.330Z,99.90
2018-07-28T15:46:59.623Z,99.90
2018-07-28T15:49:26.860Z,99.90
2018-07-28T15:51:54.032Z,99.90
2018-07-28T15:54:21.509Z,99.90
2018-07-28T15:56:48.688Z,99.90
2018-07-28T15:59:15.927Z,99.90
2018-07-28T16:01:43.343Z,99.90
2018-07-28T16:04:10.491Z,99.90
2018-07-28T16:06:37.700Z,99.90
2018-07-28T16:09:07.789Z,99.90
2018-07-28T16:11:35.002Z,99.90
2018-07-28T16:14:02.233Z,99.90
2018-07-28T16:16:29.484Z,99.90
2018-07-28T16:18:56.826Z,99.90
2018-07-28T16:21:24.050Z,99.90
2018-07-28T16:23:51.251Z,99.90
2018-07-28T16:26:18.458Z,99.90
2018-07-28T16:28:45.716Z,99.90
2018-07-28T16:33:59.679Z,99.90
2018-07-28T16:36:26.850Z,99.90
2018-07-28T16:39:01.008Z,99.90
2018-07-28T16:41:28.263Z,99.90
2018-07-28T16:43:55.471Z,99.90
2018-07-28T16:46:22.749Z,99.90
2018-07-28T16:48:49.963Z,99.90
2018-07-28T16:51:17.221Z,99.90
2018-07-28T16:53:44.408Z,99.90
2018-07-28T16:56:11.752Z,99.90
2018-07-28T16:58:38.935Z,99.90
2018-07-28T17:01:06.144Z,99.90
2018-07-28T17:03:33.728Z,99.90
2018-07-28T17:06:00.915Z,99.90
2018-07-28T17:08:28.167Z,99.90
2018-07-28T17:10:55.347Z,99.90
2018-07-28T17:13:22.583Z,99.90
2018-07-28T17:15:49.785Z,99.90
2018-07-28T17:18:16.991Z,99.90
2018-07-28T17:20:44.286Z,99.90
2018-07-28T17:23:11.492Z,99.90
2018-07-28T17:25:38.744Z,99.90
2018-07-28T17:28:06.051Z,99.90
2018-07-28T17:30:33.279Z,99.90
2018-07-28T17:33:00.577Z,99.90
2018-07-28T17:35:27.844Z,99.90
2018-07-28T17:37:55.036Z,99.90
2018-07-28T17:40:22.230Z,99.90
2018-07-28T17:42:49.515Z,99.90
2018-07-28T17:45:16.737Z,99.90
2018-07-28T17:47:43.971Z,99.90
2018-07-28T17:50:11.247Z,99.90
2018-07-28T17:52:38.482Z,99.90
2018-07-28T17:55:07.000Z,99.90
2018-07-28T17:57:34.317Z,99.90
2018-07-28T18:00:01.702Z,99.90
2018-07-28T18:02:28.879Z,99.90
2018-07-28T18:04:56.076Z,99.90
2018-07-28T18:07:23.321Z,99.90
2018-07-28T18:09:50.603Z,99.90
2018-07-28T18:12:17.783Z,99.90
2018-07-28T18:14:44.975Z,99.90
2018-07-28T18:17:12.141Z,99.90
2018-07-28T18:19:39.486Z,99.90
2018-07-28T18:22:06.664Z,99.90
2018-07-28T18:24:33.827Z,99.90
2018-07-28T18:27:01.066Z,99.90
2018-07-28T18:29:28.348Z,99.90
2018-07-28T18:31:55.538Z,99.90
2018-07-28T18:34:22.767Z,99.90
2018-07-28T18:36:49.987Z,99.90
2018-07-28T18:39:17.207Z,99.90
2018-07-28T18:41:44.467Z,99.90
2018-07-28T18:44:11.646Z,99.90
2018-07-28T18:46:38.953Z,99.90
2018-07-28T18:49:06.206Z,99.90
2018-07-28T18:51:33.727Z,99.90
2018-07-28T18:54:01.019Z,99.90
2018-07-28T18:56:28.291Z,99.90
2018-07-28T18:58:55.476Z,99.90
2018-07-28T19:01:22.982Z,99.90
2018-07-28T19:06:17.691Z,99.90
2018-07-28T19:08:49.527Z,99.90
2018-07-28T19:11:16.763Z,99.90
2018-07-28T19:13:49.639Z,99.90
2018-07-28T19:16:16.823Z,99.90
2018-07-28T19:18:50.002Z,99.90
2018-07-28T19:21:17.253Z,99.90
2018-07-28T19:23:50.174Z,99.90
2018-07-28T19:26:17.384Z,99.90
2018-07-28T19:28:50.132Z,99.90
2018-07-28T19:31:17.369Z,99.90
2018-07-28T19:33:44.570Z,99.90
2018-07-28T19:36:17.644Z,99.90
2018-07-28T19:38:44.807Z,99.90
2018-07-28T19:41:12.059Z,99.90
2018-07-28T19:43:39.256Z,99.90
2018-07-28T19:46:05.942Z,99.90
2018-07-28T19:51:01.080Z,99.90
2018-07-28T19:53:28.267Z,99.90
2018-07-28T19:55:55.459Z,99.90
2018-07-28T19:58:22.636Z,99.90
2018-07-28T20:00:51.281Z,99.90
2018-07-28T20:03:18.965Z,99.90
2018-07-28T20:05:46.267Z,99.90
2018-07-28T20:08:13.545Z,99.90
2018-07-28T20:10:40.774Z,99.90
2018-07-28T20:13:07.951Z,99.90
2018-07-28T20:15:35.224Z,99.90
2018-07-28T20:18:02.431Z,99.90
2018-07-28T20:20:29.636Z,99.90
2018-07-28T20:22:56.851Z,99.90
2018-07-28T20:25:24.028Z,99.90
2018-07-28T20:27:50.774Z,99.90
2018-07-28T20:32:44.256Z,99.90
2018-07-28T20:35:10.953Z,99.90
2018-07-28T20:37:38.137Z,99.90
2018-07-28T20:40:05.359Z,99.90
2018-07-28T20:42:32.615Z,99.90
2018-07-28T20:44:59.761Z,99.90
2018-07-28T20:47:26.974Z,99.90
2018-07-28T20:49:54.410Z,99.90
2018-07-28T20:52:21.683Z,99.90
2018-07-28T20:57:16.415Z,99.90
2018-07-28T20:59:43.579Z,99.90
2018-07-28T21:02:10.781Z,99.90
2018-07-28T21:04:37.968Z,99.90
2018-07-28T21:07:05.162Z,99.90
2018-07-28T21:09:32.352Z,99.90
2018-07-28T21:11:59.575Z,99.90
2018-07-28T21:14:26.946Z,99.90
2018-07-28T21:16:54.131Z,99.90
2018-07-28T21:19:21.315Z,99.90
2018-07-28T21:21:48.592Z,99.90
2018-07-28T21:26:42.951Z,99.90
2018-07-28T21:29:10.214Z,99.90
2018-07-28T21:31:37.413Z,99.90
2018-07-28T21:34:04.607Z,99.90
2018-07-28T21:36:31.816Z,99.90
2018-07-28T21:38:59.818Z,99.90
2018-07-28T21:41:26.985Z,99.90
2018-07-28T21:43:54.237Z,99.90
2018-07-28T21:46:21.455Z,99.90
2018-07-28T21:48:49.066Z,99.90
2018-07-28T21:51:16.282Z,99.90
2018-07-28T21:53:43.554Z,99.90
2018-07-28T21:56:10.721Z,99.90
2018-07-28T21:58:37.949Z,99.90
2018-07-28T22:01:12.920Z,99.90
2018-07-28T22:03:40.119Z,99.90
2018-07-28T22:06:07.427Z,99.90
2018-07-28T22:11:01.839Z,99.90
2018-07-28T22:13:29.041Z,99.90
2018-07-28T22:15:56.271Z,99.90
2018-07-28T22:18:23.549Z,99.90
2018-07-28T22:20:50.788Z,99.90
2018-07-28T22:23:18.007Z,99.90
2018-07-28T22:25:45.239Z,99.90
2018-07-28T22:28:12.733Z,99.90
2018-07-28T22:30:46.710Z,99.90
2018-07-28T22:33:13.916Z,99.90
2018-07-28T22:35:41.195Z,99.90
2018-07-28T22:38:08.430Z,99.90
2018-07-28T22:40:35.683Z,99.90
2018-07-28T22:43:02.926Z,99.90
2018-07-28T22:45:30.103Z,99.90
2018-07-28T22:47:57.311Z,99.90
2018-07-28T22:52:52.821Z,99.90
2018-07-28T22:55:20.311Z,99.90
2018-07-28T22:57:47.630Z,99.90
2018-07-28T23:00:14.835Z,99.90
2018-07-28T23:02:42.318Z,99.90
2018-07-28T23:05:09.488Z,99.90
2018-07-28T23:07:36.701Z,99.90
2018-07-28T23:10:04.371Z,99.90
2018-07-28T23:12:31.567Z,99.90
2018-07-28T23:14:58.807Z,99.90
2018-07-28T23:17:26.051Z,99.90
2018-07-28T23:19:53.270Z,99.90
2018-07-28T23:22:20.685Z,99.90
2018-07-28T23:24:47.973Z,99.90
2018-07-28T23:27:15.153Z,99.90
2018-07-28T23:29:42.331Z,99.90
2018-07-28T23:32:09.504Z,99.90
2018-07-28T23:34:36.712Z,99.90
2018-07-28T23:37:04.989Z,99.90
2018-07-28T23:39:32.147Z,99.90
2018-07-28T23:41:59.294Z,99.90
2018-07-28T23:44:26.579Z,99.90
2018-07-28T23:46:53.799Z,99.90
2018-07-28T23:49:21.037Z,99.90
2018-07-28T23:51:48.368Z,99.90
2018-07-28T23:54:15.559Z,99.90
2018-07-28T23:56:42.814Z,99.90
2018-07-28T23:59:10.167Z,99.90
